Aérodrome :
LOGIN :

S'inscrire | Disclaimer

   EN    FR    IT 

 










Légende :    VFR   VFR Marginal   IFR   IFR Intensif   IFR Très Intensif
Visi : 
Plafond : 
>= 8 km
>= 3000ft
5 à 8 km
1000 à 3000 ft
1500m à 5 km
500 à 1000 ft
800 à 1500m
200 à 500 ft
< 800m
< 200 ft
Symboles :   Orages  Brouillard  Fortes neiges  Fortes précipitations  Vent > 20 kt
SIGMETs :   Divers  Orages  Givrage  Turbulence  Onde Orograph.  Cendres Volcan.







- Altitude de l'aérodrome : 291 ft
- Code IATA : ORY
- Voir les cartes d'approche


LFPO - Paris-Orly

DERNIER METAR :
  • 291100Z 10006KT 050V150 9999 SCT043 14/04 Q1016 NOSIG

METARs EXPIRÉS :
  • 291030Z 11006KT 060V160 9999 SCT040 13/04 Q1017 NOSIG
  • 291000Z 12006KT 070V220 9999 SCT033 14/05 Q1017 NOSIG
  • 290930Z 16005KT 090V200 9999 FEW029 14/05 Q1017 NOSIG
  • 290900Z 13006KT 090V170 9999 FEW030 13/05 Q1017 NOSIG
  • 290830Z 14006KT 110V170 CAVOK 12/05 Q1017 NOSIG

TAF TAF LFPO
Valide du 29 à 06h jusqu'au 30 à 12h UTC


290500Z 2906/3012 VRB02KT 7000 NSC
PROB40
TEMPO 2906/2908 4000 MIFG
PROB30
TEMPO 2906/2907 0600 BCFG SCT002
BECMG 2908/2911 12007KT 9999 SCT030
BECMG 2911/2914 CAVOK
BECMG 3008/3011 15010KT
ATIS : +33 1 49 75 65 80
Pas de NOTAMs connus pour ce terrain.



MET'MAP, la Météo Aéronautique d'un coup d'oeil ! - Copyright ORBIFLY Décembre 2007 - Disclaimer

ORBIFLY MET'MAP TEAM :

Programmation & Développement : Alexandra Zaïnal
Conception & Développement : Baudouin d'Aumeries
Co-Programmation & Développement : Marc-Olivier Méhu
Soutien technique & logistique : Manuel Goepfert

Contact : metmap@orbifly.com




SOURCES & CREDITS :

   NOAA